Time;durP1;ratioP1;P1;durP2;ratioP2;P2;SDS_P1;SDS_P2;PMS_P1;PMS_P2;Temp;Humidity;BMP_temperature;BMP_pressure;BME280_temperature;BME280_humidity;BME280_pressure;Samples;Min_cycle;Max_cycle;Signal;HPM_P1;HPM_P2
2023/03/30 00:01:16;;;;;;;2.35;2.15;;;;;;;9.55;82.86;97107.72;5011258;28;20127;-74
2023/03/30 00:03:45;;;;;;;3.80;1.90;;;;;;;9.60;82.55;97099.91;5009287;28;20103;-77
2023/03/30 00:06:19;;;;;;;2.75;1.80;;;;;;;9.61;82.67;97093.56;5009469;28;20046;-74
2023/03/30 00:08:47;;;;;;;3.78;1.75;;;;;;;9.65;82.30;97094.00;5007869;28;20049;-74
2023/03/30 00:11:16;;;;;;;3.08;2.05;;;;;;;9.61;82.39;97084.75;5009591;28;20490;-74
2023/03/30 00:13:44;;;;;;;2.38;1.73;;;;;;;9.62;82.35;97073.06;5010957;28;20042;-74
2023/03/30 00:16:14;;;;;;;3.55;2.20;;;;;;;9.65;82.35;97070.84;5012440;28;20576;-74
2023/03/30 00:18:43;;;;;;;4.65;1.90;;;;;;;9.62;82.40;97068.56;5014082;28;20080;-74
2023/03/30 00:21:11;;;;;;;4.80;2.13;;;;;;;9.61;82.59;97076.75;5013076;28;20045;-74
2023/03/30 00:23:39;;;;;;;4.30;2.05;;;;;;;9.61;82.61;97071.44;5013739;28;20046;-74
2023/03/30 00:26:07;;;;;;;2.65;1.48;;;;;;;9.62;82.16;97068.56;5012942;28;20050;-74
2023/03/30 00:28:35;;;;;;;4.68;2.10;;;;;;;9.63;81.98;97062.22;5013896;28;20506;-74
2023/03/30 00:31:02;;;;;;;3.88;1.98;;;;;;;9.58;82.38;97062.00;5012124;28;20116;-74
2023/03/30 00:33:32;;;;;;;5.22;1.90;;;;;;;9.57;82.21;97042.53;5013522;28;20486;-73
2023/03/30 00:36:12;;;;;;;2.40;1.67;;;;;;;9.52;82.34;97046.81;5012650;28;20058;-73
2023/03/30 00:38:40;;;;;;;2.67;1.80;;;;;;;9.55;82.51;97049.88;5013247;28;20405;-74
2023/03/30 00:41:08;;;;;;;2.42;2.20;;;;;;;9.54;82.60;97047.44;5009499;28;20054;-74
2023/03/30 00:43:54;;;;;;;4.55;2.00;;;;;;;9.53;82.96;97038.63;5012336;28;20042;-74
2023/03/30 00:46:23;;;;;;;4.47;2.10;;;;;;;9.55;82.49;97027.78;5012070;28;20155;-75
2023/03/30 00:48:56;;;;;;;2.60;1.73;;;;;;;9.56;82.28;97010.75;5012239;28;20077;-74
2023/03/30 00:51:25;;;;;;;2.55;1.60;;;;;;;9.56;82.01;96989.44;5012082;28;20041;-74
2023/03/30 00:53:55;;;;;;;2.88;1.92;;;;;;;9.61;81.42;96994.16;5012252;28;20490;-74
2023/03/30 00:56:27;;;;;;;3.88;2.20;;;;;;;9.61;81.44;96992.31;5015131;28;20052;-74
2023/03/30 00:58:55;;;;;;;2.58;2.17;;;;;;;9.70;81.07;96991.09;5013723;28;20054;-73
2023/03/30 01:01:27;;;;;;;3.55;1.60;;;;;;;9.61;81.16;96987.00;5014401;28;20073;-73
2023/03/30 01:03:58;;;;;;;3.80;2.35;;;;;;;9.62;81.25;96996.63;5012892;28;20096;-73
2023/03/30 01:06:28;;;;;;;2.85;2.00;;;;;;;9.57;81.22;96973.25;5047410;22;20052;-68
2023/03/30 01:08:57;;;;;;;3.10;2.50;;;;;;;9.56;81.13;96962.78;5029816;28;20057;-72
2023/03/30 01:11:26;;;;;;;3.67;2.70;;;;;;;9.56;81.04;96976.13;5030546;28;20047;-70
2023/03/30 01:13:57;;;;;;;2.75;1.70;;;;;;;9.54;81.05;96975.53;5032540;28;20087;-68
2023/03/30 01:16:29;;;;;;;3.25;2.30;;;;;;;9.63;80.73;96984.97;5015916;28;20046;-68
2023/03/30 01:19:06;;;;;;;3.92;1.92;;;;;;;9.64;80.29;96985.78;5013050;28;20408;-68
2023/03/30 01:21:58;;;;;;;3.75;2.20;;;;;;;9.53;80.70;96980.03;5009562;28;20041;-68
2023/03/30 01:25:02;;;;;;;5.78;2.47;;;;;;;9.50;80.86;96974.28;5011614;28;20041;-68
2023/03/30 01:28:09;;;;;;;4.88;2.40;;;;;;;9.48;81.15;96971.81;5010743;28;20045;-72
2023/03/30 01:30:53;;;;;;;2.75;2.17;;;;;;;9.45;81.41;96979.38;5004833;28;20056;-69
2023/03/30 01:33:52;;;;;;;5.13;2.97;;;;;;;9.43;81.52;96968.13;5010909;28;20161;-69
2023/03/30 01:36:44;;;;;;;3.00;2.42;;;;;;;9.39;81.53;96966.88;5009867;28;20137;-68
2023/03/30 01:39:36;;;;;;;4.78;2.83;;;;;;;9.35;81.74;96965.63;5010649;28;20065;-68
2023/03/30 01:42:09;;;;;;;5.47;3.05;;;;;;;9.30;81.96;96963.59;4999116;28;20050;-68
2023/03/30 01:44:43;;;;;;;4.97;2.60;;;;;;;9.41;81.56;96970.19;5011297;28;20389;-68
2023/03/30 01:47:16;;;;;;;5.57;2.92;;;;;;;9.41;81.33;96972.84;5010430;28;20046;-70
2023/03/30 01:49:46;;;;;;;4.35;3.40;;;;;;;9.37;81.22;96963.59;5011271;28;20050;-70
2023/03/30 01:52:16;;;;;;;4.38;2.63;;;;;;;9.39;80.78;96961.56;5010427;28;20424;-70
2023/03/30 01:54:47;;;;;;;1.85;1.50;;;;;;;9.41;80.04;96954.19;5010940;28;20456;-70
2023/03/30 01:57:18;;;;;;;5.15;2.63;;;;;;;9.48;79.64;96953.16;5010000;28;20135;-68
2023/03/30 01:59:51;;;;;;;3.15;2.60;;;;;;;9.47;79.77;96948.03;5010192;28;20104;-68
2023/03/30 02:02:21;;;;;;;3.20;2.60;;;;;;;9.40;79.85;96948.03;5012077;28;20045;-68
2023/03/30 02:04:52;;;;;;;5.32;2.55;;;;;;;9.38;80.04;96927.97;5010563;28;20103;-68
2023/03/30 02:07:22;;;;;;;5.78;2.30;;;;;;;9.37;79.76;96921.81;5009958;28;20145;-68
2023/03/30 02:09:54;;;;;;;4.57;2.70;;;;;;;9.37;80.03;96911.16;5010403;28;20065;-68
2023/03/30 02:12:22;;;;;;;5.72;2.47;;;;;;;9.37;79.90;96910.34;5012233;28;20076;-68
2023/03/30 02:14:51;;;;;;;4.13;2.55;;;;;;;9.39;79.70;96906.44;5008250;28;20076;-69
2023/03/30 02:17:23;;;;;;;6.85;3.13;;;;;;;9.34;80.21;96906.25;5010320;28;20056;-69
2023/03/30 02:19:53;;;;;;;4.40;2.65;;;;;;;9.38;79.44;96902.16;5009048;28;20062;-68
2023/03/30 02:22:20;;;;;;;3.90;2.67;;;;;;;9.49;78.86;96898.88;5010027;28;20054;-68
2023/03/30 02:24:51;;;;;;;3.42;2.67;;;;;;;9.56;78.54;96898.88;5010561;28;20037;-68
2023/03/30 02:27:21;;;;;;;5.47;3.00;;;;;;;9.57;78.21;96897.84;5011074;28;20050;-69
2023/03/30 02:29:49;;;;;;;3.10;2.35;;;;;;;9.56;78.27;96893.53;5009832;28;20054;-70
2023/03/30 02:32:19;;;;;;;3.83;2.15;;;;;;;9.53;78.27;96886.78;5010625;28;20064;-69
2023/03/30 02:35:02;;;;;;;4.93;2.20;;;;;;;9.55;78.04;96889.25;5007882;28;20481;-69
2023/03/30 02:37:43;;;;;;;4.10;2.47;;;;;;;9.54;78.37;96890.28;5009848;28;20049;-69
2023/03/30 02:40:22;;;;;;;3.28;2.33;;;;;;;9.49;78.67;96882.06;5010091;28;20128;-70
2023/03/30 02:43:02;;;;;;;3.55;2.33;;;;;;;9.49;78.80;96896.22;5008758;28;20113;-70
2023/03/30 02:45:40;;;;;;;4.38;2.50;;;;;;;9.48;78.06;96891.91;5009173;28;20046;-70
2023/03/30 02:48:17;;;;;;;4.53;2.45;;;;;;;9.49;78.39;96888.22;5006081;28;20049;-69
2023/03/30 02:50:48;;;;;;;3.60;2.58;;;;;;;9.47;78.54;96878.78;5009783;28;20045;-70
2023/03/30 02:53:42;;;;;;;6.68;2.30;;;;;;;9.57;78.91;96895.19;5010556;28;20112;-70
2023/03/30 02:56:18;;;;;;;3.30;2.75;;;;;;;9.48;78.30;96893.75;5007556;28;20072;-70
2023/03/30 02:58:56;;;;;;;3.03;2.45;;;;;;;9.47;78.38;96905.41;5009747;28;20052;-70
2023/03/30 03:01:27;;;;;;;4.38;2.45;;;;;;;9.43;78.25;96909.53;5010739;28;20049;-70
2023/03/30 03:04:10;;;;;;;4.90;2.85;;;;;;;9.39;78.67;96919.78;5006772;28;20064;-68
2023/03/30 03:06:55;;;;;;;6.57;2.50;;;;;;;9.37;78.84;96916.47;5008334;28;20049;-68
2023/03/30 03:09:24;;;;;;;4.20;2.20;;;;;;;9.33;79.14;96914.44;5009403;28;20050;-68
2023/03/30 03:11:52;;;;;;;3.40;3.10;;;;;;;9.28;79.47;96927.53;5008914;28;20145;-69
2023/03/30 03:14:21;;;;;;;5.15;3.53;;;;;;;9.33;79.26;96927.75;5010344;28;20046;-67
2023/03/30 03:16:49;;;;;;;5.65;3.17;;;;;;;9.28;79.77;96930.19;5006772;28;20044;-68
2023/03/30 03:19:18;;;;;;;6.43;3.20;;;;;;;9.27;79.66;96923.22;5008747;28;20038;-68
2023/03/30 03:21:48;;;;;;;6.60;3.42;;;;;;;9.18;80.05;96927.94;5007577;28;20038;-67
2023/03/30 03:24:17;;;;;;;5.28;3.75;;;;;;;9.10;80.67;96928.13;5009159;28;20480;-67
2023/03/30 03:27:20;;;;;;;6.45;3.15;;;;;;;9.07;80.70;96925.88;5009794;28;20085;-68
2023/03/30 03:30:06;;;;;;;6.30;3.90;;;;;;;9.06;80.85;96933.03;5008660;28;20520;-69
2023/03/30 03:32:41;;;;;;;5.03;3.22;;;;;;;9.02;81.24;96928.31;5008405;28;20064;-69
2023/03/30 03:35:09;;;;;;;9.70;3.55;;;;;;;9.03;81.16;96922.78;5009777;28;20049;-68
2023/03/30 03:37:37;;;;;;;5.07;3.45;;;;;;;8.95;81.62;96916.81;5008686;28;20472;-68
2023/03/30 03:40:08;;;;;;;5.55;3.50;;;;;;;8.98;81.66;96924.41;5005242;28;20050;-68
2023/03/30 03:42:37;;;;;;;5.28;3.55;;;;;;;8.96;81.37;96929.09;5009135;28;20095;-71
2023/03/30 03:45:12;;;;;;;5.57;3.20;;;;;;;8.98;81.35;96925.22;5008757;28;20054;-69
2023/03/30 03:47:58;;;;;;;6.00;3.25;;;;;;;8.93;81.74;96935.66;5008497;28;20053;-70
2023/03/30 03:50:38;;;;;;;6.32;3.17;;;;;;;8.89;81.58;96923.78;5008269;28;20046;-69
2023/03/30 03:53:05;;;;;;;4.78;2.80;;;;;;;8.91;81.24;96919.09;5006237;28;20058;-69
2023/03/30 03:55:34;;;;;;;7.25;2.92;;;;;;;8.90;81.28;96927.25;5007988;28;20052;-69
2023/03/30 03:58:02;;;;;;;6.03;3.38;;;;;;;8.87;81.53;96928.47;5009185;28;20125;-69
2023/03/30 04:00:34;;;;;;;6.15;3.55;;;;;;;8.82;81.88;96928.28;5010235;28;20100;-69
2023/03/30 04:03:03;;;;;;;8.10;4.05;;;;;;;8.80;81.91;96933.78;5008693;28;20517;-69
2023/03/30 04:05:31;;;;;;;5.95;3.35;;;;;;;8.82;81.72;96918.41;5009034;28;20056;-69
2023/03/30 04:08:00;;;;;;;5.13;3.50;;;;;;;8.86;81.55;96899.41;5006912;28;20042;-69
2023/03/30 04:10:28;;;;;;;6.40;3.63;;;;;;;8.86;81.54;96900.22;5008358;28;20619;-69
2023/03/30 04:13:01;;;;;;;5.28;3.83;;;;;;;8.86;81.47;96897.56;5008076;28;20105;-69
2023/03/30 04:15:48;;;;;;;4.72;3.22;;;;;;;8.89;81.34;96914.97;5008441;28;20072;-69
2023/03/30 04:18:35;;;;;;;7.43;3.10;;;;;;;8.94;80.95;96915.19;5009267;28;20397;-69
2023/03/30 04:21:22;;;;;;;4.30;2.38;;;;;;;9.01;80.75;96910.72;5009890;28;20048;-69
2023/03/30 04:24:02;;;;;;;5.55;2.80;;;;;;;9.04;80.87;96903.13;5009374;28;20097;-70
2023/03/30 04:27:08;;;;;;;5.00;2.72;;;;;;;9.05;80.20;96899.44;4986935;28;20117;-69
2023/03/30 04:29:57;;;;;;;6.43;3.38;;;;;;;9.09;80.56;96887.38;4988032;28;20058;-69
2023/03/30 04:32:38;;;;;;;6.43;3.50;;;;;;;9.09;80.54;96895.38;5000985;28;20428;-69
2023/03/30 04:35:24;;;;;;;6.78;3.03;;;;;;;9.13;79.96;96890.47;5007259;28;20052;-69
2023/03/30 04:38:12;;;;;;;4.50;2.05;;;;;;;9.23;79.40;96892.72;5022566;28;20062;-69
2023/03/30 04:41:04;;;;;;;4.60;2.75;;;;;;;9.26;79.64;96889.63;5007555;28;20056;-68
2023/03/30 04:43:52;;;;;;;4.45;2.83;;;;;;;9.18;79.84;96891.47;5008341;28;20057;-69
2023/03/30 04:46:45;;;;;;;4.13;2.72;;;;;;;9.15;80.20;96893.72;5008025;28;20049;-69
2023/03/30 04:49:44;;;;;;;4.35;2.40;;;;;;;9.14;80.17;96895.56;5011783;28;20058;-69
2023/03/30 04:52:30;;;;;;;4.28;2.75;;;;;;;9.22;79.76;96915.03;5012251;28;20100;-70
2023/03/30 04:55:19;;;;;;;5.18;2.22;;;;;;;9.32;79.22;96912.81;5010691;28;20449;-70
2023/03/30 04:58:05;;;;;;;4.15;2.35;;;;;;;9.31;79.35;96916.50;5009995;28;20124;-69
2023/03/30 05:00:52;;;;;;;3.60;1.83;;;;;;;9.27;79.71;96933.88;5012881;28;20073;-69
2023/03/30 05:03:28;;;;;;;5.88;2.75;;;;;;;9.25;79.54;96947.38;5012373;28;20053;-69
2023/03/30 05:06:15;;;;;;;7.88;2.70;;;;;;;9.25;79.64;96947.38;5011826;28;20046;-69
2023/03/30 05:08:57;;;;;;;5.60;3.35;;;;;;;9.25;80.04;96951.91;5010920;28;20104;-69
2023/03/30 05:11:39;;;;;;;3.40;2.67;;;;;;;9.25;79.93;96951.91;5010803;28;20045;-69
2023/03/30 05:14:17;;;;;;;;;;;;;;;9.30;79.62;96960.13;5012099;28;20049;-69
2023/03/30 05:16:57;;;;;;;3.60;2.63;;;;;;;9.37;79.26;96953.75;5007858;28;19921;-69
2023/03/30 05:19:33;;;;;;;6.10;2.70;;;;;;;9.48;78.73;96936.38;5011294;28;20100;-69
2023/03/30 05:22:20;;;;;;;7.78;3.42;;;;;;;9.56;78.46;96936.16;5011073;28;20418;-69
2023/03/30 05:24:56;;;;;;;5.30;2.80;;;;;;;9.66;78.09;96923.25;5011365;28;20112;-69
2023/03/30 05:27:52;;;;;;;4.70;2.97;;;;;;;9.71;77.66;96928.78;5011664;28;20162;-69
2023/03/30 05:30:46;;;;;;;7.15;3.85;;;;;;;9.73;77.61;96928.59;5010216;28;20469;-69
2023/03/30 05:33:32;;;;;;;4.82;3.42;;;;;;;9.72;77.61;96941.09;5012213;28;20052;-69
2023/03/30 05:36:23;;;;;;;5.70;4.05;;;;;;;9.76;77.45;96936.19;5003527;28;20046;-69
2023/03/30 05:39:18;;;;;;;7.90;2.13;;;;;;;9.80;77.02;96927.56;5009928;28;20054;-69
2023/03/30 05:42:04;;;;;;;8.07;2.80;;;;;;;10.03;76.49;96931.63;5010206;28;20056;-69
2023/03/30 05:44:39;;;;;;;9.43;2.83;;;;;;;10.00;76.45;96938.19;5011564;28;20041;-69
2023/03/30 05:47:25;;;;;;;5.82;2.42;;;;;;;9.95;76.99;96930.00;5011964;28;20404;-68
2023/03/30 05:50:10;;;;;;;4.88;2.25;;;;;;;9.91;77.12;96918.94;5011206;28;20064;-69
2023/03/30 05:52:53;;;;;;;5.38;2.58;;;;;;;9.95;77.02;96924.69;5011162;28;20054;-69
2023/03/30 05:55:45;;;;;;;6.88;2.20;;;;;;;10.00;76.96;96927.53;5005061;28;20061;-69
2023/03/30 05:58:26;;;;;;;6.03;2.38;;;;;;;10.10;76.43;96911.94;5012417;28;20030;-69
2023/03/30 06:01:24;;;;;;;4.95;2.08;;;;;;;10.13;76.10;96908.84;5004644;28;20058;-69
2023/03/30 06:03:53;;;;;;;6.47;2.28;;;;;;;10.20;75.94;96903.53;5010628;28;20057;-69
2023/03/30 06:06:21;;;;;;;7.97;2.67;;;;;;;10.27;75.69;96899.84;5009689;28;20052;-69
2023/03/30 06:08:51;;;;;;;5.78;2.53;;;;;;;10.34;75.45;96885.66;5010699;28;20104;-71
2023/03/30 06:11:23;;;;;;;5.95;3.67;;;;;;;10.40;75.20;96885.59;5010682;28;20413;-69
2023/03/30 06:14:00;;;;;;;6.95;3.13;;;;;;;10.46;75.08;96886.63;5010634;28;20049;-69
2023/03/30 06:16:28;;;;;;;5.88;2.83;;;;;;;10.45;75.14;96877.81;5010070;28;20513;-69
2023/03/30 06:18:56;;;;;;;10.18;3.03;;;;;;;10.43;75.22;96868.38;5011097;28;20054;-69
2023/03/30 06:21:24;;;;;;;7.43;2.42;;;;;;;10.41;75.11;96867.75;5010624;28;20056;-69
2023/03/30 06:24:14;;;;;;;5.85;2.60;;;;;;;10.40;75.24;96860.78;5027529;28;20061;-69
2023/03/30 06:26:43;;;;;;;9.05;2.50;;;;;;;10.39;75.32;96846.63;5010033;28;20527;-69
2023/03/30 06:29:11;;;;;;;6.15;2.83;;;;;;;10.52;74.87;96843.91;5012129;28;20108;-69
2023/03/30 06:31:40;;;;;;;8.15;2.13;;;;;;;10.56;74.72;96831.78;5010005;28;20049;-69
2023/03/30 06:34:28;;;;;;;4.53;3.38;;;;;;;10.61;74.65;96809.78;5011204;28;20080;-69
2023/03/30 06:36:57;;;;;;;7.15;2.45;;;;;;;10.69;74.57;96814.06;5010053;28;20049;-69
2023/03/30 06:39:26;;;;;;;6.47;2.65;;;;;;;10.74;74.00;96817.72;5010472;28;20049;-70
2023/03/30 06:41:55;;;;;;;5.32;2.00;;;;;;;10.88;73.81;96799.78;5011414;28;20050;-69
2023/03/30 06:44:40;;;;;;;3.10;2.20;;;;;;;11.01;73.21;96800.47;5010752;28;20404;-70
2023/03/30 06:47:13;;;;;;;;;;;;;;;11.10;72.99;96806.41;5010432;28;20042;-69
2023/03/30 06:49:40;;;;;;;6.63;2.20;;;;;;;11.16;73.06;96796.69;5009123;28;19928;-70
2023/03/30 06:52:30;;;;;;;4.63;2.00;;;;;;;11.24;72.99;96797.22;5009903;28;20448;-70
2023/03/30 06:54:58;;;;;;;2.42;1.35;;;;;;;11.23;73.12;96805.44;5010857;28;20064;-70
2023/03/30 06:57:27;;;;;;;6.95;1.95;;;;;;;11.24;73.28;96791.88;5010415;28;20046;-69
2023/03/30 06:59:54;;;;;;;8.93;2.45;;;;;;;11.32;73.32;96780.91;5009372;28;20050;-70
2023/03/30 07:02:22;;;;;;;7.00;2.38;;;;;;;11.19;73.89;96774.88;5011049;28;20493;-70
2023/03/30 07:07:54;;;;;;;6.88;2.28;;;;;;;11.10;74.39;96773.53;4998590;28;20050;-75
2023/03/30 07:10:22;;;;;;;5.63;2.45;;;;;;;11.16;74.74;96789.47;4997776;28;20050;-74
2023/03/30 07:12:52;;;;;;;5.55;2.40;;;;;;;11.23;74.61;96776.88;5017659;28;20061;-74
2023/03/30 07:15:23;;;;;;;7.13;2.25;;;;;;;11.28;74.64;96770.91;5015067;28;20046;-74
2023/03/30 07:17:50;;;;;;;2.83;1.80;;;;;;;11.34;74.71;96776.16;4988076;28;20049;-74
2023/03/30 07:20:19;;;;;;;4.97;2.58;;;;;;;11.37;74.86;96781.09;4989841;28;20519;-74
2023/03/30 07:23:07;;;;;;;2.65;0.88;;;;;;;11.45;74.49;96774.63;4986765;28;20579;-74
2023/03/30 07:25:35;;;;;;;6.60;2.58;;;;;;;11.49;74.61;96789.19;4986248;28;20430;-74
2023/03/30 07:28:13;;;;;;;8.38;2.00;;;;;;;11.42;75.04;96772.38;4987098;28;20818;-75
2023/03/30 07:30:41;;;;;;;4.88;2.13;;;;;;;11.42;75.15;96788.41;4985332;28;20461;-74
2023/03/30 07:33:10;;;;;;;3.08;1.73;;;;;;;11.42;75.48;96776.94;4988964;28;20073;-73
2023/03/30 07:35:43;;;;;;;7.90;2.70;;;;;;;11.44;75.47;96775.66;4987865;28;20413;-74
2023/03/30 07:38:13;;;;;;;5.10;2.17;;;;;;;11.42;75.82;96788.41;4988047;28;20040;-74
2023/03/30 07:40:45;;;;;;;4.70;2.05;;;;;;;11.37;77.21;96801.63;4989388;28;20049;-74
2023/03/30 07:43:16;;;;;;;5.07;3.05;;;;;;;11.35;77.34;96785.81;4989192;28;20105;-74
2023/03/30 07:45:44;;;;;;;4.20;2.08;;;;;;;11.34;77.73;96797.53;4999310;28;20056;-74
2023/03/30 07:48:17;;;;;;;5.63;2.33;;;;;;;11.29;78.37;96807.25;5002375;28;20047;-74
2023/03/30 07:50:46;;;;;;;9.73;2.50;;;;;;;11.26;78.66;96815.69;4986982;28;20620;-74
2023/03/30 07:53:14;;;;;;;8.38;2.60;;;;;;;11.21;79.25;96824.34;4988615;28;20049;-74
2023/03/30 07:55:44;;;;;;;9.23;3.03;;;;;;;11.14;79.25;96839.63;4986501;28;20101;-75
2023/03/30 07:58:22;;;;;;;6.30;2.75;;;;;;;11.19;79.77;96834.47;5012302;28;20044;-75
2023/03/30 08:00:52;;;;;;;9.77;2.20;;;;;;;11.14;80.30;96830.78;4992848;28;20464;-74
2023/03/30 08:03:27;;;;;;;8.23;2.78;;;;;;;11.12;80.85;96833.69;4991626;28;20046;-74
2023/03/30 08:05:58;;;;;;;8.52;2.45;;;;;;;11.05;81.08;96840.91;5003284;28;20054;-74
2023/03/30 08:08:28;;;;;;;8.98;3.25;;;;;;;11.00;81.65;96844.22;4986290;28;20049;-74
2023/03/30 08:10:55;;;;;;;9.15;2.60;;;;;;;10.99;82.04;96842.63;5004266;28;20098;-74
2023/03/30 08:13:26;;;;;;;7.25;2.63;;;;;;;10.96;82.07;96853.72;4982576;28;20048;-75
2023/03/30 08:15:54;;;;;;;8.20;2.78;;;;;;;10.86;82.85;96864.06;4987601;28;20065;-74
2023/03/30 08:18:22;;;;;;;10.60;3.08;;;;;;;10.80;83.56;96875.56;4983836;28;20046;-74
2023/03/30 08:20:51;;;;;;;6.72;2.75;;;;;;;10.83;83.68;96896.50;4987352;28;20059;-74
2023/03/30 08:23:19;;;;;;;6.13;2.65;;;;;;;10.74;84.72;96915.66;4986580;28;20125;-74
2023/03/30 08:25:51;;;;;;;5.65;2.70;;;;;;;10.65;85.30;96929.25;4985133;28;20081;-74
2023/03/30 08:28:20;;;;;;;8.02;3.25;;;;;;;10.60;85.73;96944.22;4989376;28;20053;-74
2023/03/30 08:30:49;;;;;;;5.88;2.92;;;;;;;10.60;86.63;96941.56;4984719;28;20081;-74
2023/03/30 08:33:17;;;;;;;8.15;3.25;;;;;;;10.59;87.56;96953.25;5003039;28;20104;-74
2023/03/30 08:35:45;;;;;;;5.45;2.70;;;;;;;10.56;88.25;96953.72;4990533;28;20047;-74
2023/03/30 08:38:16;;;;;;;6.30;2.88;;;;;;;10.39;90.35;96949.84;4993657;28;20045;-74
2023/03/30 08:40:45;;;;;;;6.15;3.65;;;;;;;10.29;91.47;96966.28;4992832;28;20054;-75
2023/03/30 08:43:22;;;;;;;7.68;3.47;;;;;;;10.25;91.18;96971.22;4990269;28;20069;-74
2023/03/30 08:45:59;;;;;;;9.10;3.17;;;;;;;10.19;92.17;96957.88;4991402;28;20531;-74
2023/03/30 08:48:28;;;;;;;8.10;2.95;;;;;;;10.15;92.71;96959.31;4989963;28;20050;-74
2023/03/30 08:51:02;;;;;;;7.28;3.30;;;;;;;10.13;93.32;96964.03;5004498;28;20118;-74
2023/03/30 08:53:32;;;;;;;11.60;4.82;;;;;;;10.13;94.11;96959.50;4989841;28;20048;-74
2023/03/30 08:56:04;;;;;;;14.00;3.90;;;;;;;10.13;94.22;96962.19;4989699;28;20042;-74
2023/03/30 08:58:39;;;;;;;9.20;3.30;;;;;;;10.08;95.23;96951.31;5005844;28;20100;-74
2023/03/30 09:01:15;;;;;;;7.43;3.22;;;;;;;10.03;96.27;96937.78;4993282;28;20571;-72
2023/03/30 09:03:54;;;;;;;7.38;3.08;;;;;;;10.01;96.86;96931.03;4989791;28;20042;-75
2023/03/30 09:06:27;;;;;;;4.50;2.53;;;;;;;10.00;97.59;96919.53;4987778;28;20484;-74
2023/03/30 09:08:55;;;;;;;10.98;4.47;;;;;;;10.05;97.74;96925.09;4993223;28;20421;-75
2023/03/30 09:11:31;;;;;;;7.40;3.47;;;;;;;10.06;98.46;96915.22;4992461;28;20073;-75
2023/03/30 09:14:01;;;;;;;4.90;2.53;;;;;;;10.09;98.87;96914.78;5006759;28;20120;-75
2023/03/30 09:16:37;;;;;;;9.65;3.78;;;;;;;10.15;98.41;96909.47;4991625;28;20046;-75
2023/03/30 09:19:08;;;;;;;7.47;2.85;;;;;;;10.26;98.49;96910.72;4988757;28;20069;-75
2023/03/30 09:21:36;;;;;;;9.50;3.08;;;;;;;10.31;98.71;96897.53;4992299;28;20042;-75
2023/03/30 09:24:12;;;;;;;5.75;2.78;;;;;;;10.36;98.92;96888.94;4990281;28;20564;-75
2023/03/30 09:26:45;;;;;;;4.28;2.05;;;;;;;10.49;97.95;96897.69;4991453;28;20046;-75
2023/03/30 09:29:18;;;;;;;3.55;2.00;;;;;;;10.57;97.35;96902.81;4990507;28;20122;-75
2023/03/30 09:31:51;;;;;;;3.53;2.25;;;;;;;10.59;97.32;96897.22;4991971;28;20046;-75
2023/03/30 09:34:26;;;;;;;5.20;2.42;;;;;;;10.69;96.35;96883.47;4991952;28;20038;-75
2023/03/30 09:36:57;;;;;;;2.47;1.35;;;;;;;10.67;96.04;96873.00;4990003;28;20046;-75
2023/03/30 09:39:26;;;;;;;5.38;1.73;;;;;;;10.71;95.50;96866.19;4991850;28;20042;-74
2023/03/30 09:42:04;;;;;;;4.75;2.10;;;;;;;10.65;96.64;96857.19;4993690;28;20050;-75
2023/03/30 09:44:35;;;;;;;2.45;1.55;;;;;;;10.63;96.35;96834.41;4991874;28;20066;-75
2023/03/30 09:47:20;;;;;;;4.82;1.95;;;;;;;10.64;96.67;96814.69;5012680;28;20038;-74
2023/03/30 09:49:48;;;;;;;4.75;1.90;;;;;;;10.65;96.59;96795.81;5014114;28;20046;-75
2023/03/30 09:52:20;;;;;;;2.78;1.67;;;;;;;10.72;96.07;96784.25;5011126;28;20046;-74
2023/03/30 09:54:48;;;;;;;4.63;1.75;;;;;;;10.74;96.11;96766.19;5012747;28;20041;-74
2023/03/30 09:57:24;;;;;;;2.75;1.20;;;;;;;10.75;95.88;96787.31;5000931;28;20077;-76
2023/03/30 09:59:54;;;;;;;3.50;1.60;;;;;;;10.80;95.35;96805.34;4989752;28;20042;-75
2023/03/30 10:02:26;;;;;;;4.00;1.50;;;;;;;10.78;95.65;96799.44;4991636;28;20039;-75
2023/03/30 10:05:00;;;;;;;3.17;1.83;;;;;;;10.77;95.24;96805.81;4991383;28;20054;-75
2023/03/30 10:07:31;;;;;;;2.85;1.95;;;;;;;10.80;94.71;96808.84;4988183;28;20077;-75
2023/03/30 10:10:00;;;;;;;3.15;1.55;;;;;;;10.76;95.06;96817.50;4986680;28;20057;-75
2023/03/30 10:12:29;;;;;;;5.50;1.77;;;;;;;10.79;94.96;96827.75;4990251;28;20038;-76
2023/03/30 10:15:00;;;;;;;2.78;1.80;;;;;;;10.80;94.67;96838.19;4992132;28;20049;-74
2023/03/30 10:17:30;;;;;;;2.00;1.67;;;;;;;10.82;94.02;96857.50;5007069;28;20077;-73
2023/03/30 10:20:23;;;;;;;3.97;1.88;;;;;;;10.81;94.52;96845.19;4991508;28;20058;-73
2023/03/30 10:22:52;;;;;;;2.47;1.55;;;;;;;10.81;93.87;96847.03;4991670;28;20058;-73
2023/03/30 10:25:22;;;;;;;4.25;2.05;;;;;;;10.71;94.95;96844.81;5003932;28;20433;-73
2023/03/30 10:27:52;;;;;;;2.65;1.73;;;;;;;10.66;95.29;96829.47;4989717;28;20116;-74
2023/03/30 10:30:24;;;;;;;2.83;1.83;;;;;;;10.65;95.23;96819.00;4987463;28;20043;-73
2023/03/30 10:32:56;;;;;;;3.13;2.17;;;;;;;10.67;95.16;96819.63;4991252;28;20580;-74
2023/03/30 10:35:25;;;;;;;2.72;2.05;;;;;;;10.68;94.91;96823.94;5005717;28;20262;-74
2023/03/30 10:37:55;;;;;;;3.38;1.83;;;;;;;10.76;94.68;96826.34;4991715;28;20061;-74
2023/03/30 10:40:26;;;;;;;2.30;1.70;;;;;;;10.78;94.38;96823.44;4992025;28;20478;-74
2023/03/30 10:42:55;;;;;;;5.63;1.95;;;;;;;10.83;93.91;96823.63;4991096;28;20766;-73
2023/03/30 10:45:28;;;;;;;7.35;2.60;;;;;;;10.87;94.00;96824.81;4986620;28;20047;-73
2023/03/30 10:48:09;;;;;;;3.90;2.92;;;;;;;10.92;93.63;96811.63;4989540;28;20047;-75
2023/03/30 10:50:45;;;;;;;3.10;2.80;;;;;;;10.94;93.67;96809.56;4991795;28;20145;-74
2023/03/30 10:53:22;;;;;;;3.42;2.15;;;;;;;10.93;93.77;96821.28;4987482;28;20406;-76
2023/03/30 10:55:53;;;;;;;5.28;2.65;;;;;;;11.04;93.35;96828.59;5003943;28;20572;-75
2023/03/30 10:58:31;;;;;;;2.53;1.88;;;;;;;11.06;93.30;96825.72;4988375;28;20054;-75
2023/03/30 11:01:06;;;;;;;5.65;2.42;;;;;;;11.09;93.51;96823.44;4990923;28;20042;-75
2023/03/30 11:03:39;;;;;;;3.00;2.20;;;;;;;11.13;93.12;96805.94;4984467;28;20085;-75
2023/03/30 11:06:11;;;;;;;5.28;3.30;;;;;;;11.22;92.56;96819.84;5000407;28;20462;-74
2023/03/30 11:08:41;;;;;;;4.18;3.10;;;;;;;11.33;91.57;96822.63;4989434;28;20050;-74
2023/03/30 11:11:12;;;;;;;3.13;2.83;;;;;;;11.43;91.14;96810.63;4987018;28;20096;-74
2023/03/30 11:13:42;;;;;;;4.43;2.67;;;;;;;11.53;90.08;96793.03;4986707;28;20441;-74
2023/03/30 11:16:21;;;;;;;5.95;2.80;;;;;;;11.69;89.80;96789.81;4991540;28;20046;-73
2023/03/30 11:18:54;;;;;;;3.35;2.08;;;;;;;11.86;89.43;96794.59;4991670;28;20512;-73
2023/03/30 11:21:28;;;;;;;4.85;2.80;;;;;;;12.13;87.54;96778.03;4991096;28;20038;-74
2023/03/30 11:23:58;;;;;;;3.50;2.42;;;;;;;12.44;86.62;96781.56;4991640;28;20054;-74
2023/03/30 11:26:32;;;;;;;3.33;2.92;;;;;;;12.63;86.44;96774.28;4999293;28;20045;-73
2023/03/30 11:29:06;;;;;;;5.45;3.10;;;;;;;12.68;86.76;96780.59;5005048;28;20054;-73
2023/03/30 11:31:44;;;;;;;7.57;3.45;;;;;;;12.68;86.49;96775.22;4992181;28;20043;-74
2023/03/30 11:34:20;;;;;;;3.53;2.40;;;;;;;12.64;84.58;96766.03;4988968;28;20046;-74
2023/03/30 11:36:54;;;;;;;4.80;3.05;;;;;;;12.70;84.09;96769.66;4989939;28;20050;-74
2023/03/30 11:39:25;;;;;;;2.90;2.60;;;;;;;12.79;82.06;96768.28;5005965;28;20042;-73
2023/03/30 11:42:04;;;;;;;5.35;2.15;;;;;;;12.87;80.68;96759.94;5005953;28;20494;-73
2023/03/30 11:44:32;;;;;;;2.67;1.58;;;;;;;12.89;80.56;96771.22;4988057;28;20093;-73
2023/03/30 11:47:09;;;;;;;3.45;2.38;;;;;;;12.88;80.55;96769.56;4988255;28;20050;-73
2023/03/30 11:49:46;;;;;;;4.10;1.65;;;;;;;12.83;79.44;96759.56;4988536;28;20042;-73
2023/03/30 11:52:25;;;;;;;2.17;1.98;;;;;;;12.86;79.66;96759.13;4989830;28;20053;-73
2023/03/30 11:55:19;;;;;;;3.58;1.98;;;;;;;12.90;79.22;96754.09;4986650;28;20047;-73
2023/03/30 11:57:52;;;;;;;5.72;1.77;;;;;;;12.85;79.65;96751.31;4990106;28;20039;-74
2023/03/30 12:00:28;;;;;;;2.75;1.67;;;;;;;12.85;79.52;96754.00;4990259;28;20042;-73
2023/03/30 12:03:05;;;;;;;3.17;1.98;;;;;;;12.87;79.56;96746.56;4989736;28;20050;-74
2023/03/30 12:05:37;;;;;;;4.85;2.17;;;;;;;12.91;80.15;96752.25;4987814;28;20038;-73
2023/03/30 12:08:18;;;;;;;2.40;1.55;;;;;;;12.78;80.06;96753.25;4989610;28;20042;-73
2023/03/30 12:10:49;;;;;;;2.85;1.63;;;;;;;12.75;80.51;96746.53;4995672;28;20050;-73
2023/03/30 12:13:18;;;;;;;3.17;1.77;;;;;;;12.82;81.03;96741.06;4994916;28;20221;-74
2023/03/30 12:15:48;;;;;;;3.58;1.50;;;;;;;12.81;81.02;96744.78;4994724;28;20046;-73